sensor_id;sensor_type;location;lat;lon;timestamp;P1;durP1;ratioP1;P2;durP2;ratioP2
55465;SDS011;41329;41.594;23.810;2023-05-24T00:01:14;6.13;;;5.65;;
55465;SDS011;41329;41.594;23.810;2023-05-24T00:03:40;6.15;;;5.75;;
55465;SDS011;41329;41.594;23.810;2023-05-24T00:06:06;5.78;;;5.47;;
55465;SDS011;41329;41.594;23.810;2023-05-24T00:08:32;5.72;;;5.32;;
55465;SDS011;41329;41.594;23.810;2023-05-24T00:10:58;5.65;;;5.22;;
55465;SDS011;41329;41.594;23.810;2023-05-24T00:13:24;5.95;;;5.40;;
55465;SDS011;41329;41.594;23.810;2023-05-24T00:15:49;5.10;;;4.80;;
55465;SDS011;41329;41.594;23.810;2023-05-24T00:18:15;5.45;;;5.13;;
55465;SDS011;41329;41.594;23.810;2023-05-24T00:20:42;5.93;;;5.63;;
55465;SDS011;41329;41.594;23.810;2023-05-24T00:23:07;5.57;;;5.28;;
55465;SDS011;41329;41.594;23.810;2023-05-24T00:25:33;5.70;;;5.15;;
55465;SDS011;41329;41.594;23.810;2023-05-24T00:27:59;4.93;;;4.63;;
55465;SDS011;41329;41.594;23.810;2023-05-24T00:30:24;5.28;;;4.88;;
55465;SDS011;41329;41.594;23.810;2023-05-24T00:32:50;4.60;;;4.30;;
55465;SDS011;41329;41.594;23.810;2023-05-24T00:35:15;5.65;;;5.15;;
55465;SDS011;41329;41.594;23.810;2023-05-24T00:37:41;4.22;;;4.00;;
55465;SDS011;41329;41.594;23.810;2023-05-24T00:40:09;4.72;;;4.43;;
55465;SDS011;41329;41.594;23.810;2023-05-24T00:42:37;5.45;;;5.05;;
55465;SDS011;41329;41.594;23.810;2023-05-24T00:45:03;5.47;;;5.18;;
55465;SDS011;41329;41.594;23.810;2023-05-24T00:47:28;4.45;;;4.15;;
55465;SDS011;41329;41.594;23.810;2023-05-24T00:49:54;5.18;;;4.60;;
55465;SDS011;41329;41.594;23.810;2023-05-24T00:52:20;5.15;;;4.78;;
55465;SDS011;41329;41.594;23.810;2023-05-24T00:54:45;5.18;;;4.68;;
55465;SDS011;41329;41.594;23.810;2023-05-24T00:57:11;5.13;;;4.72;;
55465;SDS011;41329;41.594;23.810;2023-05-24T00:59:40;5.28;;;4.82;;
55465;SDS011;41329;41.594;23.810;2023-05-24T01:02:05;5.28;;;4.97;;
55465;SDS011;41329;41.594;23.810;2023-05-24T01:04:31;5.30;;;4.88;;
55465;SDS011;41329;41.594;23.810;2023-05-24T01:12:47;5.32;;;4.90;;
55465;SDS011;41329;41.594;23.810;2023-05-24T01:15:37;4.40;;;4.10;;
55465;SDS011;41329;41.594;23.810;2023-05-24T01:18:12;5.35;;;4.95;;
55465;SDS011;41329;41.594;23.810;2023-05-24T01:20:41;5.72;;;5.20;;
55465;SDS011;41329;41.594;23.810;2023-05-24T01:28:46;5.28;;;4.93;;
55465;SDS011;41329;41.594;23.810;2023-05-24T01:31:12;5.63;;;5.22;;
55465;SDS011;41329;41.594;23.810;2023-05-24T01:33:42;5.85;;;5.45;;
55465;SDS011;41329;41.594;23.810;2023-05-24T01:36:08;5.88;;;5.35;;
55465;SDS011;41329;41.594;23.810;2023-05-24T01:38:33;4.90;;;4.60;;
55465;SDS011;41329;41.594;23.810;2023-05-24T01:41:17;4.80;;;4.40;;
55465;SDS011;41329;41.594;23.810;2023-05-24T01:43:59;5.07;;;4.68;;
55465;SDS011;41329;41.594;23.810;2023-05-24T01:51:48;5.23;;;4.83;;
55465;SDS011;41329;41.594;23.810;2023-05-24T01:54:36;5.10;;;4.70;;
55465;SDS011;41329;41.594;23.810;2023-05-24T01:57:04;5.80;;;5.40;;
55465;SDS011;41329;41.594;23.810;2023-05-24T01:59:31;5.37;;;4.97;;
55465;SDS011;41329;41.594;23.810;2023-05-24T02:01:58;5.25;;;4.95;;
55465;SDS011;41329;41.594;23.810;2023-05-24T02:04:24;5.93;;;5.40;;
55465;SDS011;41329;41.594;23.810;2023-05-24T02:06:50;5.75;;;5.30;;
55465;SDS011;41329;41.594;23.810;2023-05-24T02:09:15;5.27;;;4.93;;
55465;SDS011;41329;41.594;23.810;2023-05-24T02:11:41;5.93;;;5.60;;
55465;SDS011;41329;41.594;23.810;2023-05-24T02:14:06;6.15;;;5.75;;
55465;SDS011;41329;41.594;23.810;2023-05-24T02:16:31;6.50;;;5.97;;
55465;SDS011;41329;41.594;23.810;2023-05-24T02:18:57;5.43;;;5.10;;
55465;SDS011;41329;41.594;23.810;2023-05-24T02:21:23;5.83;;;5.43;;
55465;SDS011;41329;41.594;23.810;2023-05-24T02:23:49;5.80;;;5.30;;
55465;SDS011;41329;41.594;23.810;2023-05-24T02:26:14;6.30;;;5.37;;
55465;SDS011;41329;41.594;23.810;2023-05-24T02:28:41;5.03;;;4.72;;
55465;SDS011;41329;41.594;23.810;2023-05-24T02:31:07;5.47;;;5.07;;
55465;SDS011;41329;41.594;23.810;2023-05-24T02:33:32;8.03;;;4.73;;
55465;SDS011;41329;41.594;23.810;2023-05-24T02:35:59;5.20;;;4.90;;
55465;SDS011;41329;41.594;23.810;2023-05-24T02:38:25;5.50;;;5.00;;
55465;SDS011;41329;41.594;23.810;2023-05-24T02:40:50;5.97;;;5.40;;
55465;SDS011;41329;41.594;23.810;2023-05-24T02:43:16;5.57;;;5.20;;
55465;SDS011;41329;41.594;23.810;2023-05-24T02:45:41;5.57;;;5.20;;
55465;SDS011;41329;41.594;23.810;2023-05-24T02:48:07;5.17;;;4.73;;
55465;SDS011;41329;41.594;23.810;2023-05-24T02:50:32;5.47;;;5.17;;
55465;SDS011;41329;41.594;23.810;2023-05-24T02:52:58;5.47;;;5.07;;
55465;SDS011;41329;41.594;23.810;2023-05-24T02:55:23;6.10;;;5.50;;
55465;SDS011;41329;41.594;23.810;2023-05-24T02:57:49;5.60;;;5.20;;
55465;SDS011;41329;41.594;23.810;2023-05-24T03:00:15;5.27;;;4.97;;
55465;SDS011;41329;41.594;23.810;2023-05-24T03:02:42;5.47;;;5.07;;
55465;SDS011;41329;41.594;23.810;2023-05-24T03:05:08;5.87;;;5.47;;
55465;SDS011;41329;41.594;23.810;2023-05-24T03:07:34;4.77;;;4.47;;
55465;SDS011;41329;41.594;23.810;2023-05-24T03:09:59;5.93;;;5.53;;
55465;SDS011;41329;41.594;23.810;2023-05-24T03:12:25;5.47;;;4.97;;
55465;SDS011;41329;41.594;23.810;2023-05-24T03:14:50;5.57;;;5.17;;
55465;SDS011;41329;41.594;23.810;2023-05-24T03:17:16;5.53;;;5.23;;
55465;SDS011;41329;41.594;23.810;2023-05-24T03:19:41;5.50;;;5.10;;
55465;SDS011;41329;41.594;23.810;2023-05-24T03:22:06;6.13;;;5.83;;
55465;SDS011;41329;41.594;23.810;2023-05-24T03:24:32;6.17;;;5.70;;
55465;SDS011;41329;41.594;23.810;2023-05-24T03:26:58;5.50;;;5.20;;
55465;SDS011;41329;41.594;23.810;2023-05-24T03:29:23;6.20;;;5.80;;
55465;SDS011;41329;41.594;23.810;2023-05-24T03:31:49;6.03;;;5.73;;
55465;SDS011;41329;41.594;23.810;2023-05-24T03:34:14;5.93;;;5.63;;
55465;SDS011;41329;41.594;23.810;2023-05-24T03:36:39;5.70;;;5.20;;
55465;SDS011;41329;41.594;23.810;2023-05-24T03:39:06;6.80;;;6.33;;
55465;SDS011;41329;41.594;23.810;2023-05-24T03:41:31;8.27;;;7.57;;
55465;SDS011;41329;41.594;23.810;2023-05-24T03:43:57;7.67;;;7.17;;
55465;SDS011;41329;41.594;23.810;2023-05-24T03:46:22;7.73;;;7.13;;
55465;SDS011;41329;41.594;23.810;2023-05-24T03:48:47;7.33;;;6.73;;
55465;SDS011;41329;41.594;23.810;2023-05-24T03:51:13;12.20;;;9.07;;
55465;SDS011;41329;41.594;23.810;2023-05-24T03:53:39;9.17;;;8.53;;
55465;SDS011;41329;41.594;23.810;2023-05-24T03:56:04;9.57;;;8.97;;
55465;SDS011;41329;41.594;23.810;2023-05-24T03:58:30;16.57;;;9.17;;
55465;SDS011;41329;41.594;23.810;2023-05-24T04:00:55;18.73;;;10.10;;
55465;SDS011;41329;41.594;23.810;2023-05-24T04:03:21;13.50;;;11.77;;
55465;SDS011;41329;41.594;23.810;2023-05-24T04:05:46;12.73;;;11.63;;
55465;SDS011;41329;41.594;23.810;2023-05-24T04:08:11;15.03;;;10.97;;
55465;SDS011;41329;41.594;23.810;2023-05-24T04:10:39;30.47;;;9.33;;
55465;SDS011;41329;41.594;23.810;2023-05-24T04:13:04;8.67;;;7.97;;
55465;SDS011;41329;41.594;23.810;2023-05-24T04:15:30;10.53;;;9.77;;
55465;SDS011;41329;41.594;23.810;2023-05-24T04:17:55;10.50;;;9.60;;
55465;SDS011;41329;41.594;23.810;2023-05-24T04:20:21;11.70;;;9.67;;
55465;SDS011;41329;41.594;23.810;2023-05-24T04:22:49;9.40;;;8.57;;
55465;SDS011;41329;41.594;23.810;2023-05-24T04:25:15;8.80;;;8.20;;
55465;SDS011;41329;41.594;23.810;2023-05-24T04:27:40;9.30;;;8.67;;
55465;SDS011;41329;41.594;23.810;2023-05-24T04:30:06;8.40;;;7.80;;
55465;SDS011;41329;41.594;23.810;2023-05-24T04:32:33;8.27;;;7.67;;
55465;SDS011;41329;41.594;23.810;2023-05-24T04:34:59;9.70;;;7.30;;
55465;SDS011;41329;41.594;23.810;2023-05-24T04:37:26;8.47;;;7.80;;
55465;SDS011;41329;41.594;23.810;2023-05-24T04:39:53;7.47;;;7.07;;
55465;SDS011;41329;41.594;23.810;2023-05-24T04:42:18;7.20;;;6.60;;
55465;SDS011;41329;41.594;23.810;2023-05-24T04:44:44;8.43;;;7.93;;
55465;SDS011;41329;41.594;23.810;2023-05-24T04:47:09;8.27;;;7.80;;
55465;SDS011;41329;41.594;23.810;2023-05-24T04:49:36;8.80;;;8.30;;
55465;SDS011;41329;41.594;23.810;2023-05-24T04:52:02;10.90;;;10.30;;
55465;SDS011;41329;41.594;23.810;2023-05-24T04:54:28;9.63;;;9.00;;
55465;SDS011;41329;41.594;23.810;2023-05-24T04:56:53;9.77;;;9.17;;
55465;SDS011;41329;41.594;23.810;2023-05-24T04:59:19;10.67;;;10.07;;
55465;SDS011;41329;41.594;23.810;2023-05-24T05:01:44;11.67;;;10.67;;
55465;SDS011;41329;41.594;23.810;2023-05-24T05:04:10;9.30;;;8.80;;
55465;SDS011;41329;41.594;23.810;2023-05-24T05:06:35;9.53;;;8.93;;
55465;SDS011;41329;41.594;23.810;2023-05-24T05:09:04;9.33;;;8.80;;
55465;SDS011;41329;41.594;23.810;2023-05-24T05:11:33;10.60;;;9.80;;
55465;SDS011;41329;41.594;23.810;2023-05-24T05:13:59;10.17;;;9.40;;
55465;SDS011;41329;41.594;23.810;2023-05-24T05:16:24;11.00;;;10.30;;
55465;SDS011;41329;41.594;23.810;2023-05-24T05:18:49;10.93;;;10.33;;
55465;SDS011;41329;41.594;23.810;2023-05-24T05:21:15;11.23;;;10.57;;
55465;SDS011;41329;41.594;23.810;2023-05-24T05:23:40;11.60;;;11.00;;
55465;SDS011;41329;41.594;23.810;2023-05-24T05:26:05;12.07;;;11.17;;
55465;SDS011;41329;41.594;23.810;2023-05-24T05:28:31;11.97;;;11.17;;
55465;SDS011;41329;41.594;23.810;2023-05-24T05:30:56;11.67;;;10.97;;
55465;SDS011;41329;41.594;23.810;2023-05-24T05:33:22;11.20;;;10.50;;
55465;SDS011;41329;41.594;23.810;2023-05-24T05:35:48;10.77;;;10.17;;
55465;SDS011;41329;41.594;23.810;2023-05-24T05:38:13;10.40;;;9.70;;
55465;SDS011;41329;41.594;23.810;2023-05-24T05:40:39;11.20;;;10.40;;
55465;SDS011;41329;41.594;23.810;2023-05-24T05:43:04;9.77;;;9.17;;
55465;SDS011;41329;41.594;23.810;2023-05-24T05:45:29;9.60;;;9.00;;
55465;SDS011;41329;41.594;23.810;2023-05-24T05:47:55;10.50;;;9.80;;
55465;SDS011;41329;41.594;23.810;2023-05-24T05:50:20;10.23;;;9.10;;
55465;SDS011;41329;41.594;23.810;2023-05-24T05:52:46;9.73;;;8.85;;
55465;SDS011;41329;41.594;23.810;2023-05-24T05:55:11;9.80;;;8.98;;
55465;SDS011;41329;41.594;23.810;2023-05-24T05:57:36;8.85;;;8.25;;
55465;SDS011;41329;41.594;23.810;2023-05-24T06:00:02;9.30;;;8.35;;
55465;SDS011;41329;41.594;23.810;2023-05-24T06:02:28;9.38;;;8.63;;
55465;SDS011;41329;41.594;23.810;2023-05-24T06:04:53;7.97;;;7.47;;
55465;SDS011;41329;41.594;23.810;2023-05-24T06:07:18;8.50;;;7.68;;
55465;SDS011;41329;41.594;23.810;2023-05-24T06:09:44;7.97;;;7.20;;
55465;SDS011;41329;41.594;23.810;2023-05-24T06:12:09;7.78;;;7.28;;
55465;SDS011;41329;41.594;23.810;2023-05-24T06:14:35;8.13;;;7.57;;
55465;SDS011;41329;41.594;23.810;2023-05-24T06:17:02;6.72;;;6.10;;
55465;SDS011;41329;41.594;23.810;2023-05-24T06:19:29;7.50;;;6.93;;
55465;SDS011;41329;41.594;23.810;2023-05-24T06:21:55;8.10;;;7.45;;
55465;SDS011;41329;41.594;23.810;2023-05-24T06:24:21;7.57;;;6.88;;
55465;SDS011;41329;41.594;23.810;2023-05-24T06:26:50;8.32;;;7.63;;
55465;SDS011;41329;41.594;23.810;2023-05-24T06:29:17;7.22;;;6.82;;
55465;SDS011;41329;41.594;23.810;2023-05-24T06:31:44;7.03;;;6.57;;
55465;SDS011;41329;41.594;23.810;2023-05-24T06:34:11;6.75;;;6.28;;
55465;SDS011;41329;41.594;23.810;2023-05-24T06:36:37;6.70;;;6.30;;
55465;SDS011;41329;41.594;23.810;2023-05-24T06:39:07;8.18;;;7.05;;
55465;SDS011;41329;41.594;23.810;2023-05-24T06:41:35;6.75;;;6.25;;
55465;SDS011;41329;41.594;23.810;2023-05-24T06:44:01;7.18;;;6.68;;
55465;SDS011;41329;41.594;23.810;2023-05-24T06:46:27;6.88;;;6.30;;
55465;SDS011;41329;41.594;23.810;2023-05-24T06:48:52;6.53;;;5.93;;
55465;SDS011;41329;41.594;23.810;2023-05-24T06:51:17;6.10;;;5.70;;
55465;SDS011;41329;41.594;23.810;2023-05-24T06:53:43;6.35;;;5.90;;
55465;SDS011;41329;41.594;23.810;2023-05-24T06:56:08;5.57;;;5.18;;
55465;SDS011;41329;41.594;23.810;2023-05-24T06:58:34;5.82;;;5.43;;
55465;SDS011;41329;41.594;23.810;2023-05-24T07:01:00;5.93;;;5.47;;
55465;SDS011;41329;41.594;23.810;2023-05-24T07:03:26;5.97;;;5.57;;
55465;SDS011;41329;41.594;23.810;2023-05-24T07:05:52;5.60;;;5.25;;
55465;SDS011;41329;41.594;23.810;2023-05-24T07:08:17;4.97;;;4.55;;
55465;SDS011;41329;41.594;23.810;2023-05-24T07:10:43;5.85;;;5.47;;
55465;SDS011;41329;41.594;23.810;2023-05-24T07:13:09;5.90;;;5.43;;
55465;SDS011;41329;41.594;23.810;2023-05-24T07:15:37;6.05;;;5.65;;
55465;SDS011;41329;41.594;23.810;2023-05-24T07:18:05;6.35;;;5.95;;
55465;SDS011;41329;41.594;23.810;2023-05-24T07:20:31;5.60;;;5.05;;
55465;SDS011;41329;41.594;23.810;2023-05-24T07:22:56;7.45;;;5.35;;
55465;SDS011;41329;41.594;23.810;2023-05-24T07:25:22;5.03;;;4.50;;
55465;SDS011;41329;41.594;23.810;2023-05-24T07:27:48;4.90;;;4.60;;
55465;SDS011;41329;41.594;23.810;2023-05-24T07:30:14;4.93;;;4.65;;
55465;SDS011;41329;41.594;23.810;2023-05-24T07:32:42;5.45;;;5.03;;
55465;SDS011;41329;41.594;23.810;2023-05-24T07:35:07;4.95;;;4.55;;
55465;SDS011;41329;41.594;23.810;2023-05-24T07:37:36;5.10;;;4.70;;
55465;SDS011;41329;41.594;23.810;2023-05-24T07:40:02;5.00;;;4.70;;
55465;SDS011;41329;41.594;23.810;2023-05-24T07:42:29;4.60;;;4.30;;
55465;SDS011;41329;41.594;23.810;2023-05-24T07:44:55;5.30;;;4.90;;
55465;SDS011;41329;41.594;23.810;2023-05-24T07:47:20;4.38;;;4.18;;
55465;SDS011;41329;41.594;23.810;2023-05-24T07:49:46;3.70;;;3.50;;
55465;SDS011;41329;41.594;23.810;2023-05-24T07:52:11;4.50;;;4.20;;
55465;SDS011;41329;41.594;23.810;2023-05-24T07:54:39;4.60;;;4.30;;
55465;SDS011;41329;41.594;23.810;2023-05-24T07:57:05;4.50;;;4.10;;
55465;SDS011;41329;41.594;23.810;2023-05-24T07:59:32;4.40;;;4.10;;
55465;SDS011;41329;41.594;23.810;2023-05-24T08:01:57;4.63;;;4.38;;
55465;SDS011;41329;41.594;23.810;2023-05-24T08:04:28;4.30;;;4.00;;
55465;SDS011;41329;41.594;23.810;2023-05-24T08:06:53;4.03;;;3.65;;
55465;SDS011;41329;41.594;23.810;2023-05-24T08:09:19;5.68;;;4.07;;
55465;SDS011;41329;41.594;23.810;2023-05-24T08:11:46;4.82;;;4.53;;
55465;SDS011;41329;41.594;23.810;2023-05-24T08:14:11;4.30;;;4.00;;
55465;SDS011;41329;41.594;23.810;2023-05-24T08:16:37;4.75;;;4.35;;
55465;SDS011;41329;41.594;23.810;2023-05-24T08:19:02;4.32;;;4.07;;
55465;SDS011;41329;41.594;23.810;2023-05-24T08:21:28;4.55;;;4.35;;
55465;SDS011;41329;41.594;23.810;2023-05-24T08:23:54;4.70;;;4.32;;
55465;SDS011;41329;41.594;23.810;2023-05-24T08:26:20;4.35;;;3.97;;
55465;SDS011;41329;41.594;23.810;2023-05-24T08:28:46;4.50;;;4.20;;
55465;SDS011;41329;41.594;23.810;2023-05-24T08:31:11;4.32;;;4.03;;
55465;SDS011;41329;41.594;23.810;2023-05-24T08:33:37;6.90;;;3.70;;
55465;SDS011;41329;41.594;23.810;2023-05-24T08:36:02;3.95;;;3.72;;
55465;SDS011;41329;41.594;23.810;2023-05-24T08:38:28;4.82;;;4.43;;
55465;SDS011;41329;41.594;23.810;2023-05-24T08:40:54;4.28;;;3.97;;
55465;SDS011;41329;41.594;23.810;2023-05-24T08:43:19;3.80;;;3.60;;
55465;SDS011;41329;41.594;23.810;2023-05-24T08:45:45;4.18;;;3.80;;
55465;SDS011;41329;41.594;23.810;2023-05-24T08:48:12;4.15;;;3.95;;
55465;SDS011;41329;41.594;23.810;2023-05-24T08:50:39;3.95;;;3.60;;
55465;SDS011;41329;41.594;23.810;2023-05-24T08:53:06;3.72;;;3.42;;
55465;SDS011;41329;41.594;23.810;2023-05-24T08:55:35;3.50;;;3.20;;
55465;SDS011;41329;41.594;23.810;2023-05-24T08:58:02;3.70;;;3.47;;
55465;SDS011;41329;41.594;23.810;2023-05-24T09:00:28;3.50;;;3.20;;
55465;SDS011;41329;41.594;23.810;2023-05-24T09:02:55;3.72;;;3.42;;
55465;SDS011;41329;41.594;23.810;2023-05-24T09:05:21;5.85;;;3.53;;
55465;SDS011;41329;41.594;23.810;2023-05-24T09:07:49;3.25;;;2.97;;
55465;SDS011;41329;41.594;23.810;2023-05-24T09:10:15;5.03;;;2.92;;
55465;SDS011;41329;41.594;23.810;2023-05-24T09:12:44;3.17;;;2.80;;
55465;SDS011;41329;41.594;23.810;2023-05-24T09:15:15;2.47;;;2.28;;
55465;SDS011;41329;41.594;23.810;2023-05-24T09:17:40;3.42;;;2.42;;
55465;SDS011;41329;41.594;23.810;2023-05-24T09:20:06;2.70;;;2.50;;
55465;SDS011;41329;41.594;23.810;2023-05-24T09:22:34;4.15;;;2.55;;
55465;SDS011;41329;41.594;23.810;2023-05-24T09:25:02;2.85;;;2.65;;
55465;SDS011;41329;41.594;23.810;2023-05-24T09:27:30;2.83;;;1.90;;
55465;SDS011;41329;41.594;23.810;2023-05-24T09:29:56;3.83;;;2.35;;
55465;SDS011;41329;41.594;23.810;2023-05-24T09:32:22;2.22;;;2.03;;
55465;SDS011;41329;41.594;23.810;2023-05-24T09:34:49;2.40;;;2.17;;
55465;SDS011;41329;41.594;23.810;2023-05-24T09:37:17;3.25;;;2.00;;
55465;SDS011;41329;41.594;23.810;2023-05-24T09:39:46;2.22;;;2.10;;
55465;SDS011;41329;41.594;23.810;2023-05-24T09:42:15;2.45;;;2.25;;
55465;SDS011;41329;41.594;23.810;2023-05-24T09:44:45;2.30;;;2.10;;
55465;SDS011;41329;41.594;23.810;2023-05-24T09:47:11;2.58;;;1.77;;
55465;SDS011;41329;41.594;23.810;2023-05-24T09:49:37;2.70;;;2.50;;
55465;SDS011;41329;41.594;23.810;2023-05-24T09:52:03;1.83;;;1.73;;
55465;SDS011;41329;41.594;23.810;2023-05-24T09:54:30;1.70;;;1.60;;
55465;SDS011;41329;41.594;23.810;2023-05-24T09:56:59;2.20;;;2.00;;
55465;SDS011;41329;41.594;23.810;2023-05-24T09:59:26;2.92;;;1.80;;
55465;SDS011;41329;41.594;23.810;2023-05-24T10:01:55;1.65;;;1.55;;
55465;SDS011;41329;41.594;23.810;2023-05-24T10:04:33;2.25;;;2.05;;
55465;SDS011;41329;41.594;23.810;2023-05-24T10:06:59;2.75;;;1.80;;
55465;SDS011;41329;41.594;23.810;2023-05-24T10:09:27;3.83;;;2.00;;
55465;SDS011;41329;41.594;23.810;2023-05-24T10:11:58;2.13;;;1.92;;
55465;SDS011;41329;41.594;23.810;2023-05-24T10:14:29;2.17;;;1.98;;
55465;SDS011;41329;41.594;23.810;2023-05-24T10:16:57;2.42;;;2.03;;
55465;SDS011;41329;41.594;23.810;2023-05-24T10:19:22;2.17;;;1.98;;
55465;SDS011;41329;41.594;23.810;2023-05-24T10:21:48;6.43;;;2.00;;
55465;SDS011;41329;41.594;23.810;2023-05-24T10:24:13;3.33;;;2.15;;
55465;SDS011;41329;41.594;23.810;2023-05-24T10:26:41;2.08;;;1.83;;
55465;SDS011;41329;41.594;23.810;2023-05-24T10:29:08;2.22;;;1.50;;
55465;SDS011;41329;41.594;23.810;2023-05-24T10:31:41;2.83;;;2.60;;
55465;SDS011;41329;41.594;23.810;2023-05-24T10:34:08;1.98;;;1.75;;
55465;SDS011;41329;41.594;23.810;2023-05-24T10:36:34;3.05;;;2.42;;
55465;SDS011;41329;41.594;23.810;2023-05-24T10:39:01;3.40;;;2.00;;
55465;SDS011;41329;41.594;23.810;2023-05-24T10:41:27;2.25;;;1.98;;
55465;SDS011;41329;41.594;23.810;2023-05-24T10:43:53;2.42;;;1.70;;
55465;SDS011;41329;41.594;23.810;2023-05-24T10:46:19;5.32;;;2.13;;
55465;SDS011;41329;41.594;23.810;2023-05-24T10:48:57;3.90;;;1.83;;
55465;SDS011;41329;41.594;23.810;2023-05-24T10:51:28;2.30;;;2.00;;
55465;SDS011;41329;41.594;23.810;2023-05-24T10:53:56;3.55;;;1.80;;
55465;SDS011;41329;41.594;23.810;2023-05-24T10:56:22;1.98;;;1.40;;
55465;SDS011;41329;41.594;23.810;2023-05-24T11:04:07;2.65;;;1.48;;
55465;SDS011;41329;41.594;23.810;2023-05-24T11:09:18;1.52;;;1.40;;
55465;SDS011;41329;41.594;23.810;2023-05-24T11:11:47;1.98;;;1.70;;
55465;SDS011;41329;41.594;23.810;2023-05-24T11:14:21;1.58;;;1.45;;
55465;SDS011;41329;41.594;23.810;2023-05-24T11:16:54;1.80;;;1.70;;
55465;SDS011;41329;41.594;23.810;2023-05-24T11:19:20;2.10;;;1.48;;
55465;SDS011;41329;41.594;23.810;2023-05-24T11:21:48;1.60;;;1.48;;
55465;SDS011;41329;41.594;23.810;2023-05-24T11:24:15;2.08;;;1.80;;
55465;SDS011;41329;41.594;23.810;2023-05-24T11:26:42;1.67;;;1.52;;
55465;SDS011;41329;41.594;23.810;2023-05-24T11:29:08;1.65;;;1.30;;
55465;SDS011;41329;41.594;23.810;2023-05-24T11:31:34;1.83;;;1.65;;
55465;SDS011;41329;41.594;23.810;2023-05-24T11:34:03;1.55;;;1.45;;
55465;SDS011;41329;41.594;23.810;2023-05-24T11:36:34;1.23;;;1.20;;
55465;SDS011;41329;41.594;23.810;2023-05-24T11:39:00;2.17;;;1.58;;
55465;SDS011;41329;41.594;23.810;2023-05-24T11:41:26;2.90;;;2.08;;
55465;SDS011;41329;41.594;23.810;2023-05-24T11:43:52;1.98;;;1.88;;
55465;SDS011;41329;41.594;23.810;2023-05-24T11:46:18;3.00;;;1.90;;
55465;SDS011;41329;41.594;23.810;2023-05-24T11:48:53;2.80;;;1.90;;
55465;SDS011;41329;41.594;23.810;2023-05-24T11:51:29;2.10;;;1.90;;
55465;SDS011;41329;41.594;23.810;2023-05-24T11:53:56;2.58;;;2.38;;
55465;SDS011;41329;41.594;23.810;2023-05-24T11:56:22;2.22;;;2.03;;
55465;SDS011;41329;41.594;23.810;2023-05-24T11:58:49;2.20;;;2.10;;
55465;SDS011;41329;41.594;23.810;2023-05-24T12:01:26;2.42;;;1.80;;
55465;SDS011;41329;41.594;23.810;2023-05-24T12:03:52;7.15;;;1.80;;
55465;SDS011;41329;41.594;23.810;2023-05-24T12:06:18;2.05;;;1.85;;
55465;SDS011;41329;41.594;23.810;2023-05-24T12:08:45;1.52;;;1.42;;
55465;SDS011;41329;41.594;23.810;2023-05-24T12:11:12;2.00;;;1.90;;
55465;SDS011;41329;41.594;23.810;2023-05-24T12:13:38;2.25;;;1.90;;
55465;SDS011;41329;41.594;23.810;2023-05-24T12:16:04;1.75;;;1.65;;
55465;SDS011;41329;41.594;23.810;2023-05-24T12:18:30;3.35;;;2.35;;
55465;SDS011;41329;41.594;23.810;2023-05-24T12:20:56;3.10;;;1.67;;
55465;SDS011;41329;41.594;23.810;2023-05-24T12:23:22;2.58;;;1.55;;
55465;SDS011;41329;41.594;23.810;2023-05-24T12:25:49;2.45;;;1.60;;
55465;SDS011;41329;41.594;23.810;2023-05-24T12:28:17;1.58;;;1.50;;
55465;SDS011;41329;41.594;23.810;2023-05-24T12:30:47;2.47;;;1.73;;
55465;SDS011;41329;41.594;23.810;2023-05-24T12:33:13;1.60;;;1.48;;
55465;SDS011;41329;41.594;23.810;2023-05-24T12:35:39;1.60;;;1.48;;
55465;SDS011;41329;41.594;23.810;2023-05-24T12:38:09;2.13;;;1.92;;
55465;SDS011;41329;41.594;23.810;2023-05-24T12:40:35;1.58;;;1.48;;
55465;SDS011;41329;41.594;23.810;2023-05-24T12:43:01;3.33;;;1.40;;
55465;SDS011;41329;41.594;23.810;2023-05-24T12:45:29;1.83;;;1.58;;
55465;SDS011;41329;41.594;23.810;2023-05-24T12:47:54;1.95;;;1.52;;
55465;SDS011;41329;41.594;23.810;2023-05-24T12:50:22;2.05;;;1.60;;
55465;SDS011;41329;41.594;23.810;2023-05-24T12:52:49;1.58;;;1.48;;
55465;SDS011;41329;41.594;23.810;2023-05-24T12:55:18;2.10;;;1.75;;
55465;SDS011;41329;41.594;23.810;2023-05-24T12:57:46;1.90;;;1.50;;
55465;SDS011;41329;41.594;23.810;2023-05-24T13:00:19;1.65;;;1.55;;
55465;SDS011;41329;41.594;23.810;2023-05-24T13:02:45;1.70;;;1.60;;
55465;SDS011;41329;41.594;23.810;2023-05-24T13:05:11;2.10;;;1.90;;
55465;SDS011;41329;41.594;23.810;2023-05-24T13:07:36;1.50;;;1.40;;
55465;SDS011;41329;41.594;23.810;2023-05-24T13:10:03;1.65;;;1.55;;
55465;SDS011;41329;41.594;23.810;2023-05-24T13:12:29;2.28;;;1.60;;
55465;SDS011;41329;41.594;23.810;2023-05-24T13:14:55;1.60;;;1.50;;
55465;SDS011;41329;41.594;23.810;2023-05-24T13:17:21;1.50;;;1.40;;
55465;SDS011;41329;41.594;23.810;2023-05-24T13:19:46;2.08;;;1.38;;
55465;SDS011;41329;41.594;23.810;2023-05-24T13:22:12;1.75;;;1.65;;
55465;SDS011;41329;41.594;23.810;2023-05-24T13:24:37;1.30;;;1.30;;
55465;SDS011;41329;41.594;23.810;2023-05-24T13:27:03;1.27;;;1.23;;
55465;SDS011;41329;41.594;23.810;2023-05-24T13:29:29;1.50;;;1.30;;
55465;SDS011;41329;41.594;23.810;2023-05-24T13:31:54;1.20;;;1.10;;
55465;SDS011;41329;41.594;23.810;2023-05-24T13:34:20;2.08;;;1.20;;
55465;SDS011;41329;41.594;23.810;2023-05-24T13:36:48;2.40;;;1.60;;
55465;SDS011;41329;41.594;23.810;2023-05-24T13:39:14;2.45;;;1.40;;
55465;SDS011;41329;41.594;23.810;2023-05-24T13:41:39;2.22;;;1.48;;
55465;SDS011;41329;41.594;23.810;2023-05-24T13:44:05;2.33;;;2.00;;
55465;SDS011;41329;41.594;23.810;2023-05-24T13:46:31;2.03;;;1.83;;
55465;SDS011;41329;41.594;23.810;2023-05-24T13:48:56;3.67;;;1.38;;
55465;SDS011;41329;41.594;23.810;2023-05-24T13:51:22;1.50;;;1.40;;
55465;SDS011;41329;41.594;23.810;2023-05-24T13:53:48;1.77;;;1.65;;
55465;SDS011;41329;41.594;23.810;2023-05-24T13:56:14;1.35;;;1.30;;
55465;SDS011;41329;41.594;23.810;2023-05-24T13:58:40;1.85;;;1.45;;
55465;SDS011;41329;41.594;23.810;2023-05-24T14:01:06;1.60;;;1.50;;
55465;SDS011;41329;41.594;23.810;2023-05-24T14:03:32;2.45;;;1.48;;
55465;SDS011;41329;41.594;23.810;2023-05-24T14:05:58;2.67;;;1.63;;
55465;SDS011;41329;41.594;23.810;2023-05-24T14:08:23;2.00;;;1.42;;
55465;SDS011;41329;41.594;23.810;2023-05-24T14:10:49;1.65;;;1.30;;
55465;SDS011;41329;41.594;23.810;2023-05-24T14:13:15;1.85;;;1.52;;
55465;SDS011;41329;41.594;23.810;2023-05-24T14:15:41;1.63;;;1.40;;
55465;SDS011;41329;41.594;23.810;2023-05-24T14:18:08;1.92;;;1.83;;
55465;SDS011;41329;41.594;23.810;2023-05-24T14:20:34;2.13;;;1.67;;
55465;SDS011;41329;41.594;23.810;2023-05-24T14:23:02;1.88;;;1.67;;
55465;SDS011;41329;41.594;23.810;2023-05-24T14:25:28;2.83;;;1.60;;
55465;SDS011;41329;41.594;23.810;2023-05-24T14:27:53;4.97;;;2.05;;
55465;SDS011;41329;41.594;23.810;2023-05-24T14:30:19;8.07;;;2.00;;
55465;SDS011;41329;41.594;23.810;2023-05-24T14:32:44;2.00;;;1.90;;
55465;SDS011;41329;41.594;23.810;2023-05-24T14:35:10;2.95;;;2.75;;
55465;SDS011;41329;41.594;23.810;2023-05-24T14:37:35;33.92;;;21.90;;
55465;SDS011;41329;41.594;23.810;2023-05-24T14:40:01;3.25;;;2.88;;
55465;SDS011;41329;41.594;23.810;2023-05-24T14:42:27;2.65;;;2.40;;
55465;SDS011;41329;41.594;23.810;2023-05-24T14:44:52;3.58;;;1.90;;
55465;SDS011;41329;41.594;23.810;2023-05-24T14:47:17;18.55;;;16.13;;
55465;SDS011;41329;41.594;23.810;2023-05-24T14:49:43;6.70;;;6.10;;
55465;SDS011;41329;41.594;23.810;2023-05-24T14:52:08;2.88;;;2.67;;
55465;SDS011;41329;41.594;23.810;2023-05-24T14:54:33;2.03;;;1.85;;